Terminal Aerodrome Forecast
Issued by NWS

Home | Current Version | Previous Version | Graphics & Text | Print | Product List | Glossary On
Versions: 1 2 3 4 5 6 7 8 9 10 11 12 13 14 15 16 17 18 19 20 21 22 23 24 25 26 27 28
033
FTUS43 KBIS 281659 AAE
TAFMOT
TAF AMD
KMOT 281659Z 2817/2912 11007KT 3SM BR OVC003
      TEMPO 2817/2820 5SM BR OVC005
     FM282000 13008KT P6SM OVC008
     FM290300 12006KT P6SM VCSH OVC008
     FM290600 17005KT P6SM SCT007 OVC025=

USA.gov is the U.S. government's official web portal to all federal, state and local government web resources and services.